MMVA

Carlos Rovirosa Pérez International Airport

Villahermosa, Mexico
TAF MMVA 161703Z 1618/1718 11015KT P6SM SCT012 BKN250 FM170600 06005KT P6SM SCT250 FM171700 06014KT P6SM SCT015 BKN250
Issued Valid From Valid To
Jul-16 @ 17:03 UTC
(3 hours ago)
Jul-16 @ 18:00 UTC
(2 hours ago)
Jul-17 @ 18:00 UTC
(in 22 hours)
Jul-16 @ 18:00 to Jul-17 @ 06:00
TAF MMVA 161703Z 1618/1718 11015KT P6SM SCT012 BKN250
Wind Visibility Clouds
110° at 15 knots Greater than 6 miles
  • Scattered at 1,200' AGL
  • Broken at 25,000' AGL
From Jul-17 @ 06:00 to Jul-17 @ 17:00
FM170600 06005KT P6SM SCT250
Wind Visibility Clouds
60° at 5 knots Greater than 6 miles
  • Scattered at 25,000' AGL
From Jul-17 @ 17:00 to Jul-17 @ 18:00
FM171700 06014KT P6SM SCT015 BKN250
Wind Visibility Clouds
60° at 14 knots Greater than 6 miles
  • Scattered at 1,500' AGL
  • Broken at 25,000' AGL
TAF MMVA 161703Z 1618/1718 11015KT P6SM SCT012 BKN250 FM170600 06005KT P6SM SCT250 FM171700 06014KT P6SM SCT015 BKN250
Issued Jul-16 @ 17:03 UTC
(3 hours ago)
Valid From Jul-16 @ 18:00 UTC
(2 hours ago)
Valid To Jul-17 @ 18:00 UTC
(in 22 hours)
Jul-16 @ 18:00 - Jul-17 @ 06:00
Wind Visibility
110° at 15 knots Greater than 6 miles
Clouds
  • Scattered at 1,200' AGL
  • Broken at 25,000' AGL
From Jul-17 @ 06:00 - Jul-17 @ 17:00
Wind Visibility
60° at 5 knots Greater than 6 miles
Clouds
  • Scattered at 25,000' AGL
From Jul-17 @ 17:00 - Jul-17 @ 18:00
Wind Visibility
60° at 14 knots Greater than 6 miles
Clouds
  • Scattered at 1,500' AGL
  • Broken at 25,000' AGL